Terminal Aerodrome Forecast
Issued by NWS

Home | Current Version | Previous Version | Text Only | Print | Product List | Glossary On
Versions: 1 2 3 4 5 6 7 8 9 10 11 12 13 14 15 16
953
FTAK31 PAJN 251158 CCA
TAFAWG
TAF COR
PAWG 251158Z 2512/2612 00000KT P6SM FEW005 SCT012 BKN025
      TEMPO 2512/2516 1SM BR OVC005
     FM251800 13007KT P6SM FEW015 SCT035
     FM260800 VRB02KT 5SM -RA BR SCT007 OVC010
      AMD LTD TO CLD VIS AND WIND 2512/2515=

USA.gov is the U.S. government's official web portal to all federal, state and local government web resources and services.